Portada
METAR-TAF:

METAR-TAF

Aeroports :

El Salvador, El Salvador

latitud: 13-26N, longitud: 089-03W, altitud: 25 m

Observació

L'informe es va fer fa 1 hora i 17 minuts, a les 21:50 UTC
Vent 3 kt del Sud, variant entre Est/Sud-Est i Oest/Sud-Oest
Temperatura 30°C
Humitat 70%
Pressió 1008 hPa
Visibilitat 10 km o més
Escasses núvols a una alçada de 7000 ft

METAR: MSLP 262150Z 17003KT 120V250 9999 FEW070 30/24 Q1008 A2978 NOSIG

Hora: 17:07 (23:07 UTC)

Pronòstic

L'informe es va fer fa 7 hores i 42 minuts, a les 15:25 UTC
Pronòstic vàlid del 26 a les 18 UTC al 27 a les 18 UTC
Vent 8 kt del Sud/Sud-Oest
Visibilitat 10 km o més
Escasses núvols a una alçada de 6000 ft
A partir de les 27 a les 0100 UTC
Vent 6 kt del Nord/Nord-Oest
Visibilitat 10 km o més
sense núvols per sota de 1500 mi sense presència de cumulonimbus.

TAF: MSLP 261525Z 2618/2718 21008KT 9999 FEW060 TX35/2618Z TN20/2712Z FM270100 34006KT CAVOK

Observacions i pronòstics meteorològics de més de 4000 aeroports (METAR i TAF).

Les estacions disponibles són els punts grocs i vermells al mapa.

Posi el ratolí al punt desitjat per veure el nom de l'estació.

Feu clic per veure les observacions i els pronòstics meteorològics.

Per canviar el mapa: feu clic els botons verds amb una creu de color negre per apropar; al botó verd amb un guió per allunyar la imatge; o en les fletxes verdes per a mapes adjacents.


METAR-TAF: